الصفحة الرئيسية
METAR-TAF:

METAR-TAF

مطار :

Esperance, أستراليا

دائرة عرض: 33-41-04S, خط طول: 121-49-22E, ارتفاع: 143 متر

مراقبة الطقس الحالي

تاريخ ووقت الإصدار 1ساعة و 21 دقيقة قبل الساعة 15:00UTC
ريح 10 عقدة من الشرق
درجة الحرارة 16°درجة مئوية
الرطوبة 88%
ضغط 1021 hPa
الرؤية 10 كم أو أكثر
ملبد بالغيوم على ارتفاع 10000 قدم

METAR: YESP 061500Z AUTO 09010KT 9999 // OVC100 16/14 Q1021

زمن: 00:21 (16:21 UTC)


TAF: مفقودة

أرصاد الطقس والتوقعات من أكثر من 4000 مطار (تقارير الطقس للمطار METAR والتنبؤ بالطقس بالمطارTAF).

المحطات المتاحة هي النقط الصفراء والحمراء على الخريطة.

حرك المؤشر فوق النقطة لمعرفة اسم المحطة.

ثم انقر لمعرفة أرصاد وتوقعات الطقس.

لتغيير الخارطة: اضغط على الأزرار الخضراء مع رمز الصليب الأسود للتكبير. على الزر الأخضر مع شرطة للتصغير، أو على الأسهم الخضراء للخرائط المجاورة.


METAR-TAF: